createdAt,value
2018-09-03T00:31:38.166Z,25.4
2018-09-03T00:32:27.494Z,25.4
2018-09-03T00:33:18.384Z,25.4
2018-09-03T00:34:07.856Z,25.4
2018-09-03T00:34:57.031Z,25.4
2018-09-03T00:35:48.409Z,25.4
2018-09-03T00:36:38.603Z,25.4
2018-09-03T00:37:27.853Z,25.4
2018-09-03T00:38:17.890Z,25.4
2018-09-03T00:39:06.566Z,25.4
2018-09-03T00:39:58.288Z,25.4
2018-09-03T00:40:48.141Z,25.4
2018-09-03T00:41:38.338Z,25.4
2018-09-03T00:42:28.256Z,25.4
2018-09-03T00:43:18.330Z,25.4
2018-09-03T00:44:07.840Z,25.4
2018-09-03T00:44:58.125Z,25.4
2018-09-03T00:45:49.318Z,25.4
2018-09-03T00:46:38.239Z,25.4
2018-09-03T00:47:29.163Z,25.4
2018-09-03T00:48:19.046Z,25.4
2018-09-03T00:49:08.222Z,25.4
2018-09-03T00:49:59.104Z,25.4
2018-09-03T00:50:49.473Z,25.4
2018-09-03T00:51:39.201Z,25.4
2018-09-03T00:52:29.524Z,25.4
2018-09-03T00:53:19.929Z,25.4
2018-09-03T00:54:08.753Z,25.4
2018-09-03T00:54:59.735Z,25.3
2018-09-03T00:55:49.244Z,25.4
2018-09-03T00:56:39.905Z,25.4
2018-09-03T00:57:29.283Z,25.4
2018-09-03T00:58:32.834Z,25.4
2018-09-03T00:59:07.975Z,25.4
2018-09-03T00:59:59.333Z,25.4
2018-09-03T01:00:48.815Z,25.4
2018-09-03T01:01:38.634Z,25.4
2018-09-03T01:02:28.763Z,25.4
2018-09-03T01:03:19.650Z,25.4
2018-09-03T01:04:09.682Z,25.4
2018-09-03T01:05:00.822Z,25.4
2018-09-03T01:05:50.349Z,25.4
2018-09-03T01:06:40.424Z,25.4
2018-09-03T01:07:31.205Z,25.3
2018-09-03T01:08:20.219Z,25.4
2018-09-03T01:09:10.045Z,25.3
2018-09-03T01:09:59.819Z,25.4
2018-09-03T01:10:51.002Z,25.4
2018-09-03T01:11:41.141Z,25.4
2018-09-03T01:12:31.659Z,25.4
2018-09-03T01:13:20.327Z,25.4
2018-09-03T01:14:09.958Z,25.4
2018-09-03T01:15:01.476Z,25.4
2018-09-03T01:15:51.371Z,25.4
2018-09-03T01:16:40.784Z,25.3
2018-09-03T01:17:31.572Z,25.4
2018-09-03T01:18:20.823Z,25.3
2018-09-03T01:19:10.766Z,25.3
2018-09-03T01:20:00.603Z,25.3
2018-09-03T01:20:50.701Z,25.3
2018-09-03T01:21:41.286Z,25.3
2018-09-03T01:22:31.530Z,25.3
2018-09-03T01:23:22.607Z,25.3
2018-09-03T01:24:11.198Z,25.3
2018-09-03T01:25:01.935Z,25.3
2018-09-03T01:25:51.363Z,25.3
2018-09-03T01:26:41.691Z,25.3
2018-09-03T01:27:31.178Z,25.3
2018-09-03T01:28:21.483Z,25.4
2018-09-03T01:29:11.958Z,25.3
2018-09-03T01:30:06.983Z,25.3
2018-09-03T01:31:07.154Z,25.3
2018-09-03T01:31:57.287Z,25.3
2018-09-03T01:32:31.504Z,25.3
2018-09-03T01:33:37.917Z,25.3
2018-09-03T01:34:12.525Z,25.3
2018-09-03T01:35:02.940Z,25.3
2018-09-03T01:35:52.361Z,25.3
2018-09-03T01:36:43.210Z,25.3
2018-09-03T01:37:33.199Z,25.3
2018-09-03T01:39:25.847Z,25.3
2018-09-03T01:40:03.510Z,25.3
2018-09-03T01:40:53.043Z,25.3
2018-09-03T01:41:57.179Z,25.3
2018-09-03T01:42:34.215Z,25.3
2018-09-03T01:43:23.662Z,25.3
2018-09-03T01:44:13.591Z,25.3
2018-09-03T01:45:03.008Z,25.3
2018-09-03T01:46:08.856Z,25.3
2018-09-03T01:46:44.264Z,25.3
2018-09-03T01:47:49.150Z,25.3
2018-09-03T01:48:23.513Z,25.3
2018-09-03T01:49:13.716Z,25.3
2018-09-03T01:50:02.256Z,25.3
2018-09-03T01:51:24.038Z,25.3
2018-09-03T01:51:44.452Z,25.3
2018-09-03T01:52:49.790Z,25.3
2018-09-03T01:53:38.326Z,25.3
2018-09-03T01:54:14.006Z,25.3
2018-09-03T01:55:03.501Z,25.3
2018-09-03T01:55:53.931Z,25.3
2018-09-03T01:56:58.575Z,25.3
2018-09-03T01:57:34.014Z,25.3
2018-09-03T01:58:24.093Z,25.3
2018-09-03T01:59:14.655Z,25.3
2018-09-03T02:00:04.663Z,25.3
2018-09-03T02:00:55.048Z,25.3
2018-09-03T02:01:44.918Z,25.3
2018-09-03T02:02:34.901Z,25.3
2018-09-03T02:03:24.570Z,25.3
2018-09-03T02:04:14.023Z,25.3
2018-09-03T02:05:05.146Z,25.3
2018-09-03T02:05:55.037Z,25.3
2018-09-03T02:06:46.228Z,25.3
2018-09-03T02:07:35.635Z,25.3
2018-09-03T02:08:40.540Z,25.3
2018-09-03T02:09:29.340Z,25.3
2018-09-03T02:10:05.071Z,25.3
2018-09-03T02:10:55.573Z,25.2
2018-09-03T02:11:45.400Z,25.3
2018-09-03T02:12:35.239Z,25.3
2018-09-03T02:13:24.882Z,25.3
2018-09-03T02:14:16.448Z,25.3
2018-09-03T02:15:05.735Z,25.3
2018-09-03T02:15:56.464Z,25.3
2018-09-03T02:17:00.167Z,25.3
2018-09-03T02:17:35.968Z,25.3
2018-09-03T02:18:27.340Z,25.3
2018-09-03T02:19:16.039Z,25.3
2018-09-03T02:20:06.119Z,25.3
2018-09-03T02:21:25.780Z,25.3
2018-09-03T02:21:45.869Z,25.3
2018-09-03T02:22:33.942Z,25.3
2018-09-03T02:23:25.959Z,25.3
2018-09-03T02:24:31.291Z,25.3
2018-09-03T02:25:07.785Z,25.3
2018-09-03T02:25:56.164Z,25.3
2018-09-03T02:26:46.689Z,25.3
2018-09-03T02:27:36.867Z,25.3
2018-09-03T02:28:41.720Z,25.3
2018-09-03T02:29:17.981Z,25.3
2018-09-03T02:30:21.154Z,25.3
2018-09-03T02:30:56.244Z,25.2
2018-09-03T02:32:01.894Z,25.3
2018-09-03T02:32:36.494Z,25.3
2018-09-03T02:33:25.510Z,25.3
2018-09-03T02:34:16.936Z,25.3
2018-09-03T02:35:21.603Z,25.3
2018-09-03T02:35:57.458Z,25.2
2018-09-03T02:37:02.288Z,25.2
2018-09-03T02:37:37.366Z,25.3
2018-09-03T02:38:27.384Z,25.3
2018-09-03T02:39:18.323Z,25.2
2018-09-03T02:40:21.899Z,25.2
2018-09-03T02:40:58.279Z,25.3
2018-09-03T02:42:17.607Z,25.2
2018-09-03T02:42:37.295Z,25.2
2018-09-03T02:43:28.419Z,25.2
2018-09-03T02:44:18.785Z,25.2
2018-09-03T02:45:08.383Z,25.2
2018-09-03T02:45:58.273Z,25.2
2018-09-03T02:46:48.260Z,25.2
2018-09-03T02:47:39.235Z,25.2
2018-09-03T02:48:43.497Z,25.2
2018-09-03T02:49:33.650Z,25.3
2018-09-03T02:50:09.515Z,25.3
2018-09-03T02:50:57.318Z,25.2
2018-09-03T02:51:48.505Z,25.2
2018-09-03T02:52:39.922Z,25.2
2018-09-03T02:53:42.702Z,25.2
2018-09-03T02:54:18.970Z,25.2
2018-09-03T02:55:22.324Z,25.2
2018-09-03T02:56:13.040Z,25.2
2018-09-03T02:56:48.605Z,25.2
2018-09-03T02:57:40.112Z,25.2
2018-09-03T02:58:29.439Z,25.2
2018-09-03T02:59:19.028Z,25.2
2018-09-03T03:00:09.342Z,25.2
2018-09-03T03:01:00.145Z,25.2
2018-09-03T03:01:48.492Z,25.2
2018-09-03T03:02:41.654Z,25.2
2018-09-03T03:03:28.727Z,25.2
2018-09-03T03:04:19.154Z,25.2
2018-09-03T03:05:09.951Z,25.2
2018-09-03T03:06:14.733Z,25.2
2018-09-03T03:06:49.234Z,25.2
2018-09-03T03:07:39.937Z,25.2
2018-09-03T03:08:44.006Z,25.2
2018-09-03T03:09:49.711Z,25.2
2018-09-03T03:10:09.794Z,25.2
2018-09-03T03:10:58.889Z,25.2
2018-09-03T03:12:05.668Z,25.2
2018-09-03T03:12:39.636Z,25.2
2018-09-03T03:13:31.426Z,25.2
2018-09-03T03:14:20.108Z,25.2
2018-09-03T03:15:11.276Z,25.1
2018-09-03T03:15:59.935Z,25.1
2018-09-03T03:16:50.256Z,25.2
2018-09-03T03:17:39.674Z,25.2
2018-09-03T03:18:30.553Z,25.1
2018-09-03T03:19:20.931Z,25.2
2018-09-03T03:20:11.009Z,25.2
2018-09-03T03:21:00.573Z,25.2
2018-09-03T03:21:50.083Z,25.2
2018-09-03T03:22:40.582Z,25.2
2018-09-03T03:23:30.823Z,25.2
2018-09-03T03:24:20.500Z,25.2
2018-09-03T03:25:26.423Z,25.1
2018-09-03T03:26:00.934Z,25.2
2018-09-03T03:26:50.994Z,25.2
2018-09-03T03:27:41.620Z,25.2
2018-09-03T03:28:29.952Z,25.2
2018-09-03T03:29:21.440Z,25.2
2018-09-03T03:30:10.465Z,25.2
2018-09-03T03:30:59.931Z,25.2
2018-09-03T03:31:51.690Z,25.2
2018-09-03T03:32:41.330Z,25.1
2018-09-03T03:33:31.842Z,25.1
2018-09-03T03:34:21.561Z,25.2
2018-09-03T03:35:11.649Z,25.1
2018-09-03T03:36:02.514Z,25.1
2018-09-03T03:36:51.440Z,25.1
2018-09-03T03:37:41.807Z,25.2
2018-09-03T03:38:32.402Z,25.1
2018-09-03T03:39:22.792Z,25.1
2018-09-03T03:40:10.651Z,25.1
2018-09-03T03:41:02.551Z,25.2
2018-09-03T03:41:52.731Z,25.1
2018-09-03T03:42:41.692Z,25.2
2018-09-03T03:43:32.556Z,25.1
2018-09-03T03:44:22.353Z,25.2
2018-09-03T03:45:12.662Z,25.2
2018-09-03T03:46:02.439Z,25.1
2018-09-03T03:46:52.472Z,25.1
2018-09-03T03:47:42.561Z,25.1
2018-09-03T03:48:33.265Z,25.1
2018-09-03T03:49:23.002Z,25.2
2018-09-03T03:50:12.772Z,25.1
2018-09-03T03:51:03.370Z,25.1
2018-09-03T03:51:52.720Z,25.1
2018-09-03T03:52:43.021Z,25.1
2018-09-03T03:53:32.743Z,25.1
2018-09-03T03:54:23.396Z,25.1
2018-09-03T03:55:15.755Z,25.1
2018-09-03T03:56:03.849Z,25.1
2018-09-03T03:56:52.704Z,25.1
2018-09-03T03:57:43.897Z,25.1
2018-09-03T03:58:35.259Z,25.1
2018-09-03T03:59:25.025Z,25.1
2018-09-03T04:00:14.895Z,25.1
2018-09-03T04:01:05.136Z,25.1
2018-09-03T04:01:55.568Z,25.1
2018-09-03T04:02:45.263Z,25.1
2018-09-03T04:03:35.882Z,25.1
2018-09-03T04:04:26.378Z,25.2
2018-09-03T04:05:14.739Z,25.1
2018-09-03T04:06:04.465Z,25.1
2018-09-03T04:06:55.040Z,25.1
2018-09-03T04:07:44.274Z,25.1
2018-09-03T04:08:33.490Z,25.1
2018-09-03T04:09:24.142Z,25.1
2018-09-03T04:10:13.823Z,25.1
2018-09-03T04:11:04.092Z,25.1
2018-09-03T04:11:54.203Z,25.1
2018-09-03T04:12:45.322Z,25.1
2018-09-03T04:13:35.159Z,25.1
2018-09-03T04:14:24.727Z,25.1
2018-09-03T04:15:14.424Z,25.1
2018-09-03T04:16:05.451Z,25.1
2018-09-03T04:16:55.958Z,25.1
2018-09-03T04:17:44.648Z,25.1
2018-09-03T04:18:35.465Z,25.1
2018-09-03T04:19:24.854Z,25.1
2018-09-03T04:20:15.171Z,25.1
2018-09-03T04:21:05.786Z,25.1
2018-09-03T04:21:55.265Z,25.1
2018-09-03T04:22:45.155Z,25.1
2018-09-03T04:23:37.882Z,25.1
2018-09-03T04:24:25.227Z,25.1
2018-09-03T04:25:15.667Z,25.1
2018-09-03T04:26:06.201Z,25.1
2018-09-03T04:26:54.804Z,25.1
2018-09-03T04:27:45.805Z,25.1
2018-09-03T04:28:36.763Z,25.1
2018-09-03T04:29:25.987Z,25.1
2018-09-03T04:30:15.609Z,25.1
2018-09-03T04:31:06.669Z,25.1
2018-09-03T04:31:55.929Z,25.1
2018-09-03T04:32:46.335Z,25.1
2018-09-03T04:33:38.326Z,25.1
2018-09-03T04:34:28.179Z,25.1
2018-09-03T04:35:16.858Z,25.1
2018-09-03T04:36:07.184Z,25.1
2018-09-03T04:36:56.977Z,25.1
2018-09-03T04:37:46.590Z,25.1
2018-09-03T04:38:37.553Z,25.1
2018-09-03T04:39:26.939Z,25.1
2018-09-03T04:40:15.862Z,25.1
2018-09-03T04:41:07.358Z,25.1
2018-09-03T04:41:56.673Z,25.1
2018-09-03T04:42:47.815Z,25.1
2018-09-03T05:00:25.457Z,25
2018-09-03T05:01:15.684Z,25.1
2018-09-03T05:02:04.688Z,25.1
2018-09-03T05:02:55.648Z,25.1
2018-09-03T05:03:44.833Z,25.1
2018-09-03T05:04:35.379Z,25.1
2018-09-03T05:05:26.856Z,25.1
2018-09-03T05:06:16.469Z,25.1
2018-09-03T05:07:04.107Z,25.1
2018-09-03T05:07:55.588Z,25.1
2018-09-03T05:08:45.405Z,25.1
2018-09-03T05:09:35.458Z,25.1
2018-09-03T05:10:26.580Z,25.1
2018-09-03T05:11:15.845Z,25.1
2018-09-03T05:12:06.204Z,25.1
2018-09-03T05:12:55.417Z,25.1
2018-09-03T05:13:45.252Z,25.1
2018-09-03T05:14:35.226Z,25.1
2018-09-03T05:15:26.927Z,25.1
2018-09-03T05:16:14.977Z,25.1
2018-09-03T05:17:06.296Z,25.1
2018-09-03T05:17:56.397Z,25.1
2018-09-03T05:18:46.384Z,25.1
2018-09-03T05:19:37.006Z,25.1
2018-09-03T05:20:26.031Z,25.1
2018-09-03T05:21:16.121Z,25.1
2018-09-03T05:22:06.688Z,25.1
2018-09-03T05:22:56.712Z,25.1
2018-09-03T05:23:47.183Z,25.1
2018-09-03T05:24:37.207Z,25.1
2018-09-03T05:25:27.169Z,25.1
2018-09-03T05:26:17.429Z,25.1
2018-09-03T05:27:07.396Z,25.1
2018-09-03T05:27:56.180Z,25.1
2018-09-03T05:28:46.123Z,25.1
2018-09-03T05:29:37.515Z,25.1
2018-09-03T05:30:26.968Z,25.1
2018-09-03T05:31:19.491Z,25.1
2018-09-03T05:32:07.139Z,25.1
2018-09-03T05:32:57.513Z,25.1
2018-09-03T05:33:47.598Z,25.1
2018-09-03T05:34:37.338Z,25.1
2018-09-03T05:35:28.101Z,25.1
2018-09-03T05:36:17.544Z,25.1
2018-09-03T05:37:07.404Z,25.1
2018-09-03T05:37:57.635Z,25.1
2018-09-03T05:38:47.460Z,25.1
2018-09-03T05:39:37.866Z,25.1
2018-09-03T05:40:28.919Z,25.1
2018-09-03T05:41:19.601Z,25.1
2018-09-03T05:42:08.896Z,25.1
2018-09-03T05:42:59.381Z,25.1
2018-09-03T05:43:51.080Z,25.1
2018-09-03T05:44:37.959Z,25.1
2018-09-03T05:45:29.749Z,25.1
2018-09-03T05:46:19.706Z,25.1
2018-09-03T05:47:08.759Z,25.1
2018-09-03T05:47:58.208Z,25.1
2018-09-03T05:48:49.243Z,25.1
2018-09-03T05:49:39.340Z,25.1
2018-09-03T05:50:32.676Z,25.1
2018-09-03T05:51:19.754Z,25.1
2018-09-03T05:52:08.862Z,25.1
2018-09-03T05:52:59.175Z,25.1
2018-09-03T05:53:49.815Z,25.1
2018-09-03T05:54:39.855Z,25.1
2018-09-03T05:55:30.050Z,25.1
2018-09-03T05:56:19.758Z,25.1
2018-09-03T05:57:09.453Z,25.1
2018-09-03T05:57:58.932Z,25.1
2018-09-03T05:58:49.613Z,25.1
2018-09-03T05:59:39.752Z,25.1
2018-09-03T06:00:29.817Z,25.1
2018-09-03T06:01:19.942Z,25.1
2018-09-03T06:02:10.124Z,25.1
2018-09-03T06:02:59.965Z,25.1
2018-09-03T06:03:49.479Z,25.1
2018-09-03T06:04:40.763Z,25.1
2018-09-03T06:05:29.197Z,25.1
2018-09-03T06:06:20.460Z,25.1
2018-09-03T06:07:10.444Z,25.1
2018-09-03T06:08:00.764Z,25.1
2018-09-03T06:08:49.900Z,25.1
2018-09-03T06:09:40.076Z,25.1
2018-09-03T06:10:31.727Z,25.1
2018-09-03T06:11:21.973Z,25.1
2018-09-03T06:12:10.914Z,25.1
2018-09-03T06:13:00.044Z,25.1
2018-09-03T06:13:50.081Z,25.1
2018-09-03T06:14:40.756Z,25.1
2018-09-03T06:15:30.833Z,25.1
2018-09-03T06:16:21.398Z,25.1
2018-09-03T06:17:11.361Z,25.1
2018-09-03T06:18:02.398Z,25.1
2018-09-03T06:18:51.742Z,25.1
2018-09-03T06:19:40.926Z,25.1
2018-09-03T06:20:31.776Z,25.1
2018-09-03T06:21:22.630Z,25.1
2018-09-03T06:22:11.928Z,25.1
2018-09-03T06:23:01.548Z,25.1
2018-09-03T06:23:51.838Z,25.1
2018-09-03T06:24:42.289Z,25.1
2018-09-03T06:25:31.404Z,25.1
2018-09-03T06:26:22.322Z,25.1
2018-09-03T06:27:12.226Z,25.1
2018-09-03T06:28:01.568Z,25.1
2018-09-03T06:28:52.241Z,25.1
2018-09-03T06:29:42.033Z,25.1
2018-09-03T06:30:32.380Z,25.1
2018-09-03T06:31:22.833Z,25.1
2018-09-03T06:32:11.593Z,25.1
2018-09-03T06:33:03.323Z,25.1
2018-09-03T06:33:51.728Z,25.1
2018-09-03T06:34:42.098Z,25.1
2018-09-03T06:35:32.699Z,25.1
2018-09-03T06:36:22.967Z,25.1
2018-09-03T06:37:12.659Z,25.1
2018-09-03T06:38:03.261Z,25.1
2018-09-03T06:38:52.152Z,25.1
2018-09-03T06:39:41.635Z,25.1
2018-09-03T06:40:31.827Z,25.1
2018-09-03T06:41:22.976Z,25.1
2018-09-03T06:42:13.997Z,25.1
2018-09-03T06:43:02.625Z,25.1
2018-09-03T06:43:51.895Z,25.1
2018-09-03T06:44:43.109Z,25.1
2018-09-03T06:45:33.177Z,25.1
2018-09-03T06:46:23.212Z,25.1
2018-09-03T06:47:13.340Z,25.1
2018-09-03T06:48:03.365Z,25.1
2018-09-03T06:48:53.745Z,25.1
2018-09-03T06:49:43.716Z,25.1
2018-09-03T06:50:34.187Z,25.1
2018-09-03T06:51:24.435Z,25.1
2018-09-03T06:52:14.429Z,25.1
2018-09-03T06:53:02.921Z,25.1
2018-09-03T06:53:54.555Z,25.1
2018-09-03T06:54:44.352Z,25.1
2018-09-03T06:55:33.827Z,25.1
2018-09-03T06:56:23.610Z,25.2
2018-09-03T06:57:15.282Z,25.1
2018-09-03T06:58:04.314Z,25.1
2018-09-03T06:58:54.380Z,25.1
2018-09-03T06:59:44.981Z,25.1
2018-09-03T07:00:34.517Z,25.1
2018-09-03T07:01:24.935Z,25.1
2018-09-03T07:02:14.787Z,25.1
2018-09-03T07:03:05.000Z,25.1
2018-09-03T07:03:55.025Z,25.1
2018-09-03T07:04:44.653Z,25.2
2018-09-03T07:05:33.477Z,25.1
2018-09-03T07:06:24.974Z,25.1
2018-09-03T07:07:15.572Z,25.1
2018-09-03T07:08:04.440Z,25.1
2018-09-03T07:08:55.428Z,25.1
2018-09-03T07:09:44.933Z,25.2
2018-09-03T07:10:35.250Z,25.2
2018-09-03T07:11:24.767Z,25.2
2018-09-03T07:12:15.352Z,25.2
2018-09-03T07:13:05.257Z,25.2
2018-09-03T07:13:55.628Z,25.2
2018-09-03T07:14:44.847Z,25.1
2018-09-03T07:15:35.219Z,25.2
2018-09-03T07:16:24.654Z,25.2
2018-09-03T07:17:14.795Z,25.2
2018-09-03T07:18:05.013Z,25.2
2018-09-03T07:18:57.094Z,25.2
2018-09-03T07:19:45.684Z,25.2
2018-09-03T07:20:35.252Z,25.2
2018-09-03T07:21:25.899Z,25.2
2018-09-03T07:22:15.831Z,25.2
2018-09-03T07:23:05.979Z,25.2
2018-09-03T07:23:56.019Z,25.2
2018-09-03T07:24:46.086Z,25.2
2018-09-03T07:25:36.157Z,25.2
2018-09-03T07:26:25.659Z,25.2
2018-09-03T07:27:17.086Z,25.2
2018-09-03T07:28:06.608Z,25.2
2018-09-03T07:28:58.400Z,25.2
2018-09-03T07:29:46.501Z,25.2
2018-09-03T07:30:35.996Z,25.2
2018-09-03T07:31:26.343Z,25.3
2018-09-03T07:32:16.646Z,25.2
2018-09-03T07:33:07.301Z,25.3
2018-09-03T07:33:56.716Z,25.2
2018-09-03T07:34:47.149Z,25.2
2018-09-03T07:35:37.929Z,25.2
2018-09-03T07:36:26.781Z,25.2
2018-09-03T07:37:17.318Z,25.3
2018-09-03T07:38:08.171Z,25.3
2018-09-03T07:38:57.083Z,25.3
2018-09-03T07:39:46.973Z,25.3
2018-09-03T07:40:36.756Z,25.2
2018-09-03T07:41:26.825Z,25.3
2018-09-03T07:42:17.569Z,25.3
2018-09-03T07:43:07.941Z,25.2
2018-09-03T07:43:58.871Z,25.3
2018-09-03T07:44:47.925Z,25.3
2018-09-03T07:45:37.403Z,25.3
2018-09-03T07:46:26.989Z,25.3
2018-09-03T07:47:17.870Z,25.3
2018-09-03T07:48:07.860Z,25.3
2018-09-03T07:48:58.814Z,25.3
2018-09-03T07:49:47.832Z,25.3
2018-09-03T07:50:38.357Z,25.3
2018-09-03T07:51:28.633Z,25.3
2018-09-03T07:52:18.133Z,25.3
2018-09-03T07:53:08.656Z,25.3
2018-09-03T07:53:58.609Z,25.3
2018-09-03T07:54:47.704Z,25.3
2018-09-03T07:55:38.604Z,25.3
2018-09-03T07:56:28.880Z,25.3
2018-09-03T07:57:18.557Z,25.3
2018-09-03T07:58:08.674Z,25.3
2018-09-03T07:58:59.332Z,25.3
2018-09-03T07:59:48.910Z,25.3
2018-09-03T08:00:38.263Z,25.3
2018-09-03T08:01:29.363Z,25.3
2018-09-03T08:02:18.313Z,25.3
2018-09-03T08:03:09.149Z,25.3
2018-09-03T08:03:58.614Z,25.3
2018-09-03T08:04:49.784Z,25.3
2018-09-03T08:05:38.779Z,25.3
2018-09-03T08:06:29.484Z,25.3
2018-09-03T08:07:20.032Z,25.3
2018-09-03T08:08:10.294Z,25.3
2018-09-03T08:09:00.436Z,25.3
2018-09-03T08:09:48.759Z,25.3
2018-09-03T08:10:39.726Z,25.3
2018-09-03T08:11:30.079Z,25.3
2018-09-03T08:12:20.101Z,25.3
2018-09-03T08:13:10.879Z,25.3
2018-09-03T08:14:00.042Z,25.3
2018-09-03T08:14:50.749Z,25.3
2018-09-03T08:15:40.464Z,25.3
2018-09-03T08:16:30.122Z,25.3
2018-09-03T08:17:20.085Z,25.3
2018-09-03T08:18:09.750Z,25.3
2018-09-03T08:19:00.817Z,25.3
2018-09-03T08:19:50.381Z,25.3
2018-09-03T08:20:40.009Z,25.3
2018-09-03T08:21:30.866Z,25.3
2018-09-03T08:22:19.995Z,25.3
2018-09-03T08:23:10.056Z,25.3
2018-09-03T08:24:01.233Z,25.3
2018-09-03T08:24:51.224Z,25.3
2018-09-03T08:25:41.033Z,25.3
2018-09-03T08:26:30.313Z,25.3
2018-09-03T08:27:20.463Z,25.3
2018-09-03T08:28:11.313Z,25.3
2018-09-03T08:29:01.121Z,25.3
2018-09-03T08:29:51.974Z,25.3
2018-09-03T08:30:41.435Z,25.3
2018-09-03T08:31:30.493Z,25.3
2018-09-03T08:32:20.773Z,25.3
2018-09-03T08:33:11.413Z,25.3
2018-09-03T08:34:01.178Z,25.3
2018-09-03T08:34:52.826Z,25.3
2018-09-03T08:35:42.785Z,25.3
2018-09-03T08:36:31.701Z,25.4
2018-09-03T08:37:21.182Z,25.3
2018-09-03T08:38:12.353Z,25.3
2018-09-03T08:39:01.610Z,25.4
2018-09-03T08:39:52.600Z,25.3
2018-09-03T08:40:41.668Z,25.4
2018-09-03T08:41:32.053Z,25.3
2018-09-03T08:42:21.820Z,25.3
2018-09-03T08:43:11.897Z,25.4
2018-09-03T08:44:01.950Z,25.3
2018-09-03T08:44:54.583Z,25.4
2018-09-03T08:45:43.361Z,25.4
2018-09-03T08:46:32.997Z,25.4
2018-09-03T08:47:22.059Z,25.4
2018-09-03T08:48:43.208Z,25.4
2018-09-03T08:49:03.160Z,25.4
2018-09-03T08:49:53.543Z,25.4
2018-09-03T08:50:43.872Z,25.4
2018-09-03T08:51:33.049Z,25.4
2018-09-03T08:52:23.170Z,25.4
2018-09-03T08:53:12.676Z,25.4
2018-09-03T08:54:02.750Z,25.4
2018-09-03T08:54:53.641Z,25.4
2018-09-03T08:55:43.379Z,25.4
2018-09-03T08:56:32.651Z,25.4
2018-09-03T08:57:23.887Z,25.4
2018-09-03T08:58:13.962Z,25.4
2018-09-03T09:14:54.879Z,25.3
2018-09-03T09:15:44.759Z,25.4
2018-09-03T09:16:35.012Z,25.4
2018-09-03T09:17:25.109Z,25.4
2018-09-03T09:18:15.787Z,25.4
2018-09-03T09:19:05.311Z,25.4
2018-09-03T09:19:56.402Z,25.4
2018-09-03T09:20:45.934Z,25.4
2018-09-03T09:21:35.693Z,25.4
2018-09-03T09:22:25.834Z,25.4
2018-09-03T09:23:15.314Z,25.4
2018-09-03T09:24:05.596Z,25.5
2018-09-03T09:24:56.165Z,25.4
2018-09-03T09:25:45.564Z,25.5
2018-09-03T09:26:35.871Z,25.4
2018-09-03T09:27:25.909Z,25.4
2018-09-03T09:28:16.041Z,25.5
2018-09-03T09:29:05.808Z,25.5
2018-09-03T09:29:56.343Z,25.4
2018-09-03T09:30:45.832Z,25.4
2018-09-03T09:31:36.285Z,25.5
2018-09-03T09:32:25.682Z,25.5
2018-09-03T09:33:17.038Z,25.5
2018-09-03T09:34:05.817Z,25.5
2018-09-03T09:34:57.346Z,25.5
2018-09-03T09:35:45.817Z,25.5
2018-09-03T09:36:36.345Z,25.5
2018-09-03T09:37:26.987Z,25.5
2018-09-03T09:38:16.172Z,25.5
2018-09-03T09:39:07.088Z,25.5
2018-09-03T09:39:58.158Z,25.5
2018-09-03T09:40:46.910Z,25.5
2018-09-03T09:41:37.475Z,25.5
2018-09-03T09:42:27.745Z,25.5
2018-09-03T09:43:18.546Z,25.5
2018-09-03T09:44:07.124Z,25.5
2018-09-03T09:44:57.773Z,25.5
2018-09-03T09:45:48.009Z,25.5
2018-09-03T09:46:37.969Z,25.5
2018-09-03T09:47:28.782Z,25.5
2018-09-03T09:48:17.552Z,25.5
2018-09-03T09:49:08.696Z,25.5
2018-09-03T09:49:57.877Z,25.5
2018-09-03T09:50:48.644Z,25.5
2018-09-03T09:51:37.807Z,25.5
2018-09-03T09:52:27.013Z,25.5
2018-09-03T09:53:18.144Z,25.5
2018-09-03T09:54:08.263Z,25.6
2018-09-03T09:55:00.387Z,25.6
2018-09-03T09:55:48.306Z,25.6
2018-09-03T09:56:37.972Z,25.6
2018-09-03T09:57:28.564Z,25.5
2018-09-03T09:58:18.611Z,25.5
2018-09-03T09:59:08.348Z,25.6
2018-09-03T09:59:58.696Z,25.5
2018-09-03T10:00:47.851Z,25.5
2018-09-03T10:01:38.538Z,25.6
2018-09-03T10:02:28.333Z,25.5
2018-09-03T10:03:18.618Z,25.6
2018-09-03T10:04:08.758Z,25.6
2018-09-03T10:04:58.573Z,25.6
2018-09-03T10:05:48.693Z,25.5
2018-09-03T10:06:38.785Z,25.6
2018-09-03T10:07:28.538Z,25.6
2018-09-03T10:08:19.367Z,25.6
2018-09-03T10:09:09.458Z,25.5
2018-09-03T10:09:58.641Z,25.5
2018-09-03T10:10:49.960Z,25.6
2018-09-03T10:11:39.552Z,25.6
2018-09-03T10:12:29.630Z,25.5
2018-09-03T10:13:19.475Z,25.6
2018-09-03T10:14:09.230Z,25.6
2018-09-03T10:14:59.370Z,25.6
2018-09-03T10:15:49.389Z,25.6
2018-09-03T10:16:40.172Z,25.6
2018-09-03T10:17:29.235Z,25.6
2018-09-03T10:18:20.440Z,25.6
2018-09-03T10:19:09.319Z,25.6
2018-09-03T10:20:00.850Z,25.6
2018-09-03T10:20:50.198Z,25.6
2018-09-03T10:21:40.120Z,25.6
2018-09-03T10:22:29.439Z,25.6
2018-09-03T10:23:19.626Z,25.6
2018-09-03T10:24:10.651Z,25.6
2018-09-03T10:25:00.153Z,25.6
2018-09-03T10:25:49.319Z,25.6
2018-09-03T10:26:40.962Z,25.6
2018-09-03T10:27:29.725Z,25.6
2018-09-03T10:28:20.597Z,25.6
2018-09-03T10:29:10.379Z,25.6
2018-09-03T10:30:00.814Z,25.6
2018-09-03T10:30:50.901Z,25.6
2018-09-03T10:31:40.593Z,25.6
2018-09-03T10:32:31.637Z,25.6
2018-09-03T10:33:20.184Z,25.6
2018-09-03T10:34:11.370Z,25.6
2018-09-03T10:35:00.877Z,25.6
2018-09-03T10:35:51.558Z,25.6
2018-09-03T10:36:41.628Z,25.6
2018-09-03T10:37:31.706Z,25.6
2018-09-03T10:38:21.661Z,25.6
2018-09-03T10:39:11.009Z,25.6
2018-09-03T10:40:02.088Z,25.6
2018-09-03T10:40:51.346Z,25.6
2018-09-03T10:41:41.758Z,25.6
2018-09-03T10:42:32.011Z,25.6
2018-09-03T10:43:21.544Z,25.6
2018-09-03T10:44:11.384Z,25.6
2018-09-03T10:45:02.224Z,25.6
2018-09-03T10:45:52.356Z,25.6
2018-09-03T10:46:43.311Z,25.6
2018-09-03T10:47:33.895Z,25.6
2018-09-03T10:48:22.004Z,25.6
2018-09-03T10:49:12.536Z,25.6
2018-09-03T10:50:02.071Z,25.6
2018-09-03T10:50:52.678Z,25.6
2018-09-03T10:51:42.525Z,25.6
2018-09-03T10:52:31.759Z,25.6
2018-09-03T10:53:21.835Z,25.6
2018-09-03T10:54:13.003Z,25.6
2018-09-03T10:55:02.781Z,25.6
2018-09-03T10:55:51.898Z,25.6
2018-09-03T10:56:43.157Z,25.6
2018-09-03T10:57:33.466Z,25.6
2018-09-03T10:58:23.527Z,25.6
2018-09-03T10:59:13.344Z,25.6
2018-09-03T11:00:03.126Z,25.6
2018-09-03T11:00:53.717Z,25.6
2018-09-03T11:01:43.512Z,25.6
2018-09-03T11:02:33.587Z,25.6
2018-09-03T11:03:22.556Z,25.6
2018-09-03T11:04:13.389Z,25.6
2018-09-03T11:05:03.250Z,25.6
2018-09-03T11:05:53.288Z,25.6
2018-09-03T11:06:43.674Z,25.6
2018-09-03T11:07:33.778Z,25.6
2018-09-03T11:08:23.467Z,25.6
2018-09-03T11:09:13.936Z,25.6
2018-09-03T11:10:04.544Z,25.6
2018-09-03T11:10:53.136Z,25.6
2018-09-03T11:11:44.382Z,25.6
2018-09-03T11:12:34.449Z,25.6
2018-09-03T11:13:24.573Z,25.6
2018-09-03T11:14:16.068Z,25.6
2018-09-03T11:15:04.630Z,25.6
2018-09-03T11:15:55.215Z,25.6
2018-09-03T11:16:45.204Z,25.6
2018-09-03T11:17:35.530Z,25.6
2018-09-03T11:18:24.329Z,25.6
2018-09-03T11:19:14.655Z,25.6
2018-09-03T11:20:07.364Z,25.6
2018-09-03T11:20:55.010Z,25.6
2018-09-03T11:21:48.292Z,25.6
2018-09-03T11:22:36.105Z,25.6
2018-09-03T11:23:24.957Z,25.6
2018-09-03T11:24:15.094Z,25.6
2018-09-03T11:25:05.392Z,25.6
2018-09-03T11:25:55.407Z,25.6
2018-09-03T11:26:45.435Z,25.6
2018-09-03T11:27:35.441Z,25.6
2018-09-03T11:28:25.052Z,25.6
2018-09-03T11:29:15.934Z,25.6
2018-09-03T11:30:05.169Z,25.6
2018-09-03T11:30:56.099Z,25.6
2018-09-03T11:31:44.419Z,25.6
2018-09-03T11:32:35.677Z,25.6
2018-09-03T11:33:25.649Z,25.6
2018-09-03T11:34:15.824Z,25.7
2018-09-03T11:35:07.268Z,25.6
2018-09-03T11:35:55.336Z,25.6
2018-09-03T11:36:46.259Z,25.6
2018-09-03T11:37:35.488Z,25.6
2018-09-03T11:38:26.961Z,25.6
2018-09-03T11:39:15.866Z,25.6
2018-09-03T11:40:05.677Z,25.7
2018-09-03T11:40:56.794Z,25.7
2018-09-03T11:41:46.072Z,25.6
2018-09-03T11:42:36.791Z,25.6
2018-09-03T11:43:27.210Z,25.6
2018-09-03T11:44:16.349Z,25.7
2018-09-03T11:45:06.956Z,25.6
2018-09-03T11:45:57.003Z,25.7
2018-09-03T11:46:47.296Z,25.7
2018-09-03T11:47:37.361Z,25.7
2018-09-03T11:48:27.543Z,25.6
2018-09-03T11:49:16.751Z,25.6
2018-09-03T11:50:07.884Z,25.6
2018-09-03T11:50:56.916Z,25.7
2018-09-03T11:51:46.075Z,25.6
2018-09-03T11:52:36.943Z,25.6
2018-09-03T11:53:27.291Z,25.7
2018-09-03T11:54:16.900Z,25.6
2018-09-03T11:55:06.573Z,25.6
2018-09-03T11:55:57.883Z,25.6
2018-09-03T11:56:47.065Z,25.6
2018-09-03T11:57:38.195Z,25.7
2018-09-03T11:58:28.072Z,25.7
2018-09-03T11:59:16.998Z,25.7
2018-09-03T12:00:08.112Z,25.7
2018-09-03T12:00:58.135Z,25.7
2018-09-03T12:01:48.010Z,25.7
2018-09-03T12:02:38.307Z,25.7
2018-09-03T12:03:28.109Z,25.7
2018-09-03T12:04:18.700Z,25.7
2018-09-03T12:05:08.466Z,25.7
2018-09-03T12:05:58.382Z,25.7
2018-09-03T12:06:50.135Z,25.7
2018-09-03T12:07:39.256Z,25.7
2018-09-03T12:08:28.812Z,25.7
2018-09-03T12:09:17.437Z,25.7
2018-09-03T12:10:09.001Z,25.7
2018-09-03T12:10:59.484Z,25.7